Terminal Aerodrome Forecast
Issued by NWS

Home | Current Version | Previous Version | Text Only | Print | Product List | Glossary Off
Versions: 1 2 3 4 5 6 7 8 9 10 11 12 13 14 15 16 17 18 19 20 21 22 23 24 25 26 27 28 29 30 31 32 33 34 35 36 37 38

854
FTUS43 KDDC 231737
TAFGCK
TAF
KGCK 231737Z 2318/2418 13010KT P6SM SKC PROB30 2412/2415 4SM -SHRA
      OVC025
     FM241500 35011KT P6SM BKN020 PROB30 2415/2416 4SM -SHRA OVC015
     FM241600 36015KT P6SM BKN015 PROB30 2416/2418 4SM -SHRA OVC008=

USA.gov is the U.S. government's official web portal to all federal, state and local government web resources and services.